createdAt,value
2022-10-12T00:07:53.231Z,98920
2022-10-12T00:19:53.271Z,98920
2022-10-12T00:31:53.291Z,98920
2022-10-12T00:43:57.626Z,98910
2022-10-12T00:55:53.253Z,98910
2022-10-12T01:07:53.275Z,98910
2022-10-12T01:19:57.076Z,98900
2022-10-12T01:31:53.175Z,98910
2022-10-12T01:43:53.161Z,98900
2022-10-12T01:55:53.283Z,98890
2022-10-12T02:07:53.272Z,98880
2022-10-12T02:19:53.272Z,98870
2022-10-12T02:31:53.263Z,98850
2022-10-12T02:43:53.167Z,98840
2022-10-12T02:55:53.161Z,98840
2022-10-12T03:07:53.213Z,98840
2022-10-12T03:19:53.159Z,98840
2022-10-12T03:31:53.178Z,98830
2022-10-12T03:43:53.203Z,98830
2022-10-12T03:55:53.181Z,98820
2022-10-12T04:07:53.244Z,98820
2022-10-12T04:19:53.161Z,98810
2022-10-12T04:31:53.271Z,98800
2022-10-12T04:43:53.165Z,98810
2022-10-12T04:55:53.169Z,98810
2022-10-12T05:07:53.169Z,98810
2022-10-12T05:19:53.249Z,98800
2022-10-12T05:31:53.241Z,98790
2022-10-12T05:43:53.260Z,98800
2022-10-12T05:55:53.221Z,98810
2022-10-12T06:07:53.961Z,98800
2022-10-12T06:19:53.165Z,98800
2022-10-12T06:31:53.237Z,98790
2022-10-12T06:43:53.302Z,98800
2022-10-12T06:55:53.168Z,98810
2022-10-12T07:07:53.161Z,98810
2022-10-12T07:19:53.283Z,98840
2022-10-12T07:31:53.283Z,98860
2022-10-12T07:43:53.207Z,98880
2022-10-12T07:55:53.170Z,98880
2022-10-12T08:07:53.180Z,98900
2022-10-12T08:19:53.176Z,98910
2022-10-12T08:31:53.268Z,98910
2022-10-12T08:43:53.257Z,98920
2022-10-12T08:55:53.216Z,98910
2022-10-12T09:07:53.252Z,98920
2022-10-12T09:19:53.216Z,98910
2022-10-12T09:31:53.232Z,98920
2022-10-12T09:43:53.295Z,98930
2022-10-12T09:55:53.162Z,98910
2022-10-12T10:07:53.163Z,98930
2022-10-12T10:19:53.280Z,98930
2022-10-12T10:31:53.171Z,98920
2022-10-12T10:43:53.280Z,98900
2022-10-12T10:55:53.157Z,98910
2022-10-12T11:07:53.276Z,98910
2022-10-12T11:19:53.251Z,98930
2022-10-12T11:31:53.271Z,98940
2022-10-12T11:43:53.163Z,98930
2022-10-12T11:55:53.280Z,98900
2022-10-12T12:07:53.165Z,98880
2022-10-12T12:19:53.209Z,98890
2022-10-12T12:31:53.270Z,98890
2022-10-12T12:43:53.281Z,98870
2022-10-12T12:55:53.163Z,98850
2022-10-12T13:07:53.281Z,98870
2022-10-12T13:19:53.162Z,98850
2022-10-12T13:31:53.282Z,98840
2022-10-12T13:43:53.159Z,98820
2022-10-12T13:55:53.164Z,98800
2022-10-12T14:07:53.171Z,98790
2022-10-12T14:19:53.304Z,98790
2022-10-12T14:31:53.281Z,98780
2022-10-12T14:43:53.255Z,98760
2022-10-12T14:55:54.634Z,98750
2022-10-12T15:07:53.183Z,98750
2022-10-12T15:19:53.264Z,98730
2022-10-12T15:31:53.171Z,98720
2022-10-12T15:43:53.170Z,98700
2022-10-12T15:55:53.251Z,98700
2022-10-12T16:07:53.224Z,98680
2022-10-12T16:19:53.244Z,98680
2022-10-12T16:31:53.181Z,98680
2022-10-12T16:43:53.161Z,98670
2022-10-12T16:55:53.220Z,98670
2022-10-12T17:07:53.283Z,98690
2022-10-12T17:19:53.206Z,98680
2022-10-12T17:31:53.258Z,98680
2022-10-12T17:43:53.230Z,98690
2022-10-12T17:55:58.167Z,98680
2022-10-12T18:07:53.649Z,98690
2022-10-12T18:19:53.185Z,98700
2022-10-12T18:31:53.232Z,98710
2022-10-12T18:43:53.270Z,98690
2022-10-12T18:55:53.232Z,98710
2022-10-12T19:07:53.163Z,98720
2022-10-12T19:19:53.167Z,98730
2022-10-12T19:31:53.290Z,98710
2022-10-12T19:43:53.237Z,98690
2022-10-12T19:55:53.244Z,98680
2022-10-12T20:07:53.162Z,98690
2022-10-12T20:19:53.282Z,98680
2022-10-12T20:31:53.165Z,98680
2022-10-12T20:43:53.223Z,98670
2022-10-12T20:55:53.228Z,98670
2022-10-12T21:07:53.275Z,98670
2022-10-12T21:19:53.249Z,98680
2022-10-12T21:31:53.254Z,98680
2022-10-12T21:43:53.171Z,98660
2022-10-12T21:55:53.250Z,98670
2022-10-12T22:07:53.261Z,98660
2022-10-12T22:19:53.240Z,98660
2022-10-12T22:31:53.267Z,98670
2022-10-12T22:43:53.278Z,98660
2022-10-12T22:55:53.276Z,98650
2022-10-12T23:07:53.244Z,98630
2022-10-12T23:19:53.287Z,98640
2022-10-12T23:31:53.289Z,98650
2022-10-12T23:43:53.269Z,98640
2022-10-12T23:55:53.169Z,98640
